createdAt,value
2024-01-15T00:01:08.118Z,44.04
2024-01-15T00:06:06.514Z,44.33
2024-01-15T00:11:03.448Z,43.90
2024-01-15T00:16:00.372Z,43.85
2024-01-15T00:20:57.568Z,44.20
2024-01-15T00:25:55.176Z,44.03
2024-01-15T00:30:52.049Z,44.32
2024-01-15T00:35:48.984Z,43.93
2024-01-15T00:40:45.860Z,43.62
2024-01-15T00:45:43.707Z,43.89
2024-01-15T00:50:40.682Z,44.29
2024-01-15T00:55:38.284Z,43.69
2024-01-15T01:00:35.296Z,43.94
2024-01-15T01:05:33.062Z,44.33
2024-01-15T01:10:29.966Z,44.23
2024-01-15T01:15:27.856Z,44.02
2024-01-15T01:20:24.827Z,44.03
2024-01-15T01:25:22.688Z,44.13
2024-01-15T01:30:19.822Z,44.30
2024-01-15T01:35:16.822Z,44.22
2024-01-15T01:40:14.051Z,44.18
2024-01-15T01:45:12.628Z,44.42
2024-01-15T01:50:09.774Z,44.40
2024-01-15T01:55:08.915Z,44.61
2024-01-15T02:00:08.086Z,44.25
2024-01-15T02:05:15.089Z,44.33
2024-01-15T02:10:11.943Z,44.04
2024-01-15T02:15:09.096Z,44.39
2024-01-15T02:20:07.264Z,43.97
2024-01-15T02:25:05.748Z,44.25
2024-01-15T02:30:02.970Z,44.38
2024-01-15T02:34:59.972Z,44.65
2024-01-15T02:39:57.004Z,44.22
2024-01-15T02:44:54.751Z,44.25
2024-01-15T02:49:52.017Z,44.50
2024-01-15T02:54:49.331Z,44.66
2024-01-15T02:59:49.051Z,44.61
2024-01-15T03:04:47.195Z,44.31
2024-01-15T03:09:44.441Z,44.57
2024-01-15T03:14:41.828Z,44.57
2024-01-15T03:19:39.067Z,44.15
2024-01-15T03:24:37.057Z,44.09
2024-01-15T03:29:34.161Z,44.47
2024-01-15T03:34:31.284Z,44.41
2024-01-15T03:39:28.345Z,44.72
2024-01-15T03:44:26.295Z,44.29
2024-01-15T03:49:23.595Z,44.57
2024-01-15T03:54:23.494Z,45.15
2024-01-15T03:59:20.760Z,46.71
2024-01-15T04:04:18.920Z,49.15
2024-01-15T04:09:16.062Z,49.58
2024-01-15T04:14:13.181Z,50.60
2024-01-15T04:19:10.372Z,50.71
2024-01-15T04:24:09.532Z,50.74
2024-01-15T04:29:06.905Z,50.97
2024-01-15T04:34:04.034Z,50.91
2024-01-15T04:39:01.124Z,50.83
2024-01-15T04:44:00.906Z,50.63
2024-01-15T04:48:58.329Z,50.70
2024-01-15T04:53:56.312Z,50.56
2024-01-15T04:58:53.292Z,50.24
2024-01-15T05:03:52.116Z,50.41
2024-01-15T05:08:49.208Z,50.29
2024-01-15T05:13:46.237Z,50.47
2024-01-15T05:18:46.364Z,50.82
2024-01-15T05:23:47.680Z,50.33
2024-01-15T05:28:45.202Z,50.29
2024-01-15T05:33:44.187Z,50.77
2024-01-15T05:38:43.282Z,50.67
2024-01-15T05:43:42.441Z,50.98
2024-01-15T05:48:39.773Z,51.08
2024-01-15T05:53:38.918Z,51.21
2024-01-15T05:58:36.006Z,51.34
2024-01-15T06:03:33.736Z,52.01
2024-01-15T06:08:33.887Z,51.80
2024-01-15T06:13:31.256Z,51.76
2024-01-15T06:18:29.272Z,51.71
2024-01-15T06:23:27.950Z,51.88
2024-01-15T06:28:25.269Z,52.21
2024-01-15T06:33:22.914Z,51.68
2024-01-15T06:38:22.841Z,51.63
2024-01-15T06:43:21.075Z,51.66
2024-01-15T06:48:18.914Z,51.10
2024-01-15T06:53:16.063Z,51.50
2024-01-15T06:58:13.336Z,51.41
2024-01-15T07:03:12.224Z,52.29
2024-01-15T07:08:09.212Z,55.01
2024-01-15T07:13:10.518Z,55.75
2024-01-15T07:18:08.482Z,55.43
2024-01-15T07:23:07.467Z,54.68
2024-01-15T07:28:06.007Z,54.19
2024-01-15T07:33:05.155Z,54.02
2024-01-15T07:38:03.188Z,54.39
2024-01-15T07:43:01.995Z,54.48
2024-01-15T07:47:59.182Z,54.60
2024-01-15T07:52:58.502Z,54.19
2024-01-15T07:58:06.713Z,53.96
2024-01-15T08:03:14.464Z,52.83
2024-01-15T08:08:12.210Z,52.56
2024-01-15T08:13:10.182Z,51.66
2024-01-15T08:18:10.487Z,50.93
2024-01-15T08:23:10.804Z,50.15
2024-01-15T08:28:08.794Z,49.42
2024-01-15T08:33:11.498Z,49.26
2024-01-15T08:38:16.217Z,48.92
2024-01-15T08:43:14.296Z,48.18
2024-01-15T08:48:13.707Z,48.03
2024-01-15T08:53:10.851Z,47.05
2024-01-15T08:58:09.127Z,46.38
2024-01-15T09:03:08.959Z,45.18
2024-01-15T09:08:06.860Z,44.75
2024-01-15T09:13:05.190Z,44.38
2024-01-15T09:18:07.161Z,43.92
2024-01-15T09:23:13.501Z,43.87
2024-01-15T09:28:11.129Z,42.71
2024-01-15T09:33:10.152Z,42.14
2024-01-15T09:38:08.080Z,40.57
2024-01-15T09:43:05.789Z,40.81
2024-01-15T09:48:03.319Z,40.32
2024-01-15T09:53:02.605Z,39.49
2024-01-15T09:58:04.961Z,38.76
2024-01-15T10:03:04.012Z,39.14
2024-01-15T10:08:06.290Z,37.88
2024-01-15T10:13:05.362Z,37.45
2024-01-15T10:18:04.768Z,36.81
2024-01-15T10:23:02.806Z,36.08
2024-01-15T10:28:04.850Z,34.80
2024-01-15T10:33:03.515Z,35.18
2024-01-15T10:38:01.709Z,35.11
2024-01-15T10:42:59.570Z,34.71
2024-01-15T10:47:59.372Z,34.78
2024-01-15T10:52:57.456Z,34.56
2024-01-15T10:57:57.085Z,34.89
2024-01-15T11:02:58.286Z,34.75
2024-01-15T11:07:57.005Z,34.84
2024-01-15T11:12:54.380Z,34.15
2024-01-15T11:18:03.888Z,33.59
2024-01-15T11:23:03.528Z,33.88
2024-01-15T11:28:00.692Z,32.92
2024-01-15T11:32:57.809Z,33.24
2024-01-15T11:37:59.169Z,32.40
2024-01-15T11:42:56.730Z,32.77
2024-01-15T11:48:11.039Z,32.46
2024-01-15T11:53:18.268Z,32.15
2024-01-15T11:58:16.615Z,32.18
2024-01-15T12:03:13.892Z,32.36
2024-01-15T12:08:11.961Z,31.99
2024-01-15T12:13:12.940Z,31.96
2024-01-15T12:18:11.766Z,31.94
2024-01-15T12:23:09.732Z,31.98
2024-01-15T12:28:08.317Z,31.83
2024-01-15T12:33:10.354Z,31.60
2024-01-15T12:38:07.925Z,31.57
2024-01-15T12:43:07.741Z,31.85
2024-01-15T12:48:06.003Z,31.74
2024-01-15T12:53:03.438Z,31.74
2024-01-15T12:58:03.800Z,31.70
2024-01-15T13:03:04.462Z,31.74
2024-01-15T13:08:04.154Z,31.60
2024-01-15T13:13:10.238Z,32.09
2024-01-15T13:18:08.730Z,31.89
2024-01-15T13:23:06.410Z,32.24
2024-01-15T13:28:05.471Z,32.25
2024-01-15T13:33:05.234Z,32.42
2024-01-15T13:38:03.716Z,32.82
2024-01-15T13:43:01.979Z,32.89
2024-01-15T13:48:01.651Z,32.94
2024-01-15T13:53:00.429Z,33.23
2024-01-15T13:58:00.525Z,33.11
2024-01-15T14:02:58.297Z,33.26
2024-01-15T14:07:56.098Z,33.62
2024-01-15T14:12:53.243Z,33.51
2024-01-15T14:17:51.941Z,33.74
2024-01-15T14:22:49.150Z,33.98
2024-01-15T14:27:46.376Z,34.03
2024-01-15T14:32:43.621Z,34.51
2024-01-15T14:37:41.723Z,34.35
2024-01-15T14:42:39.146Z,34.60
2024-01-15T14:47:38.922Z,34.67
2024-01-15T14:52:36.842Z,34.69
2024-01-15T14:58:03.430Z,34.94
2024-01-15T15:03:00.644Z,35.32
2024-01-15T15:07:59.948Z,35.57
2024-01-15T15:12:59.718Z,35.98
2024-01-15T15:17:57.047Z,36.23
2024-01-15T15:22:56.321Z,36.62
2024-01-15T15:27:53.303Z,37.00
2024-01-15T15:32:51.049Z,36.80
2024-01-15T15:37:49.274Z,37.13
2024-01-15T15:42:49.374Z,37.13
2024-01-15T15:47:46.798Z,37.55
2024-01-15T15:52:45.661Z,37.63
2024-01-15T15:57:43.617Z,38.00
2024-01-15T16:02:40.944Z,38.24
2024-01-15T16:07:40.605Z,38.60
2024-01-15T16:12:40.209Z,38.63
2024-01-15T16:23:16.389Z,39.04
2024-01-15T16:23:44.753Z,39.13
2024-01-15T16:28:14.917Z,39.28
2024-01-15T16:33:14.452Z,39.68
2024-01-15T16:38:12.471Z,39.94
2024-01-15T16:43:09.841Z,40.40
2024-01-15T16:48:08.487Z,40.53
2024-01-15T16:53:05.858Z,40.95
2024-01-15T16:58:07.969Z,41.43
2024-01-15T17:03:08.336Z,41.91
2024-01-15T17:08:09.579Z,43.15
2024-01-15T17:13:08.335Z,44.08
2024-01-15T17:18:16.844Z,44.05
2024-01-15T17:23:16.818Z,43.58
2024-01-15T17:28:14.178Z,44.08
2024-01-15T17:33:11.998Z,43.90
2024-01-15T17:38:10.873Z,44.16
2024-01-15T17:43:11.228Z,43.86
2024-01-15T17:48:35.366Z,43.66
2024-01-15T17:53:33.064Z,43.86
2024-01-15T17:58:44.013Z,43.39
2024-01-15T18:03:42.901Z,43.39
2024-01-15T18:09:02.479Z,43.12
2024-01-15T18:14:22.506Z,42.98
2024-01-15T18:19:49.731Z,43.10
2024-01-15T18:24:50.617Z,42.65
2024-01-15T18:29:49.213Z,43.15
2024-01-15T18:34:47.477Z,43.26
2024-01-15T18:39:44.672Z,43.02
2024-01-15T18:44:45.503Z,43.40
2024-01-15T18:49:43.446Z,42.24
2024-01-15T18:54:41.582Z,41.75
2024-01-15T18:59:40.663Z,42.62
2024-01-15T19:04:38.370Z,43.62
2024-01-15T19:09:36.444Z,44.11
2024-01-15T19:14:34.617Z,44.10
2024-01-15T19:19:35.364Z,44.13
2024-01-15T19:24:33.242Z,44.14
2024-01-15T19:29:30.488Z,43.73
2024-01-15T19:34:27.691Z,43.77
2024-01-15T19:39:29.151Z,44.04
2024-01-15T19:44:28.536Z,43.38
2024-01-15T19:49:32.608Z,43.90
2024-01-15T19:54:33.096Z,43.70
2024-01-15T19:59:32.291Z,44.04
2024-01-15T20:04:34.063Z,43.90
2024-01-15T20:09:33.111Z,44.16
2024-01-15T20:14:38.224Z,44.19
2024-01-15T20:19:36.151Z,43.90
2024-01-15T20:24:33.797Z,44.01
2024-01-15T20:29:32.679Z,44.31
2024-01-15T20:34:29.994Z,44.10
2024-01-15T20:39:30.586Z,43.95
2024-01-15T20:44:27.867Z,43.81
2024-01-15T20:49:28.773Z,43.97
2024-01-15T20:54:35.640Z,44.76
2024-01-15T20:59:36.182Z,44.64
2024-01-15T21:04:35.793Z,45.05
2024-01-15T21:09:39.918Z,45.19
2024-01-15T21:14:39.059Z,44.87
2024-01-15T21:19:37.408Z,44.57
2024-01-15T21:24:37.411Z,44.81
2024-01-15T21:29:34.549Z,44.72
2024-01-15T21:34:31.818Z,44.29
2024-01-15T21:39:30.943Z,44.79
2024-01-15T21:44:28.105Z,44.66
2024-01-15T21:49:28.663Z,45.07
2024-01-15T21:54:26.754Z,44.84
2024-01-15T21:59:26.669Z,44.82
2024-01-15T22:04:25.069Z,44.96
2024-01-15T22:09:23.083Z,45.00
2024-01-15T22:14:20.765Z,45.02
2024-01-15T22:19:18.783Z,45.20
2024-01-15T22:24:16.987Z,44.97
2024-01-15T22:29:14.811Z,44.74
2024-01-15T22:34:12.219Z,44.67
2024-01-15T22:39:10.223Z,44.38
2024-01-15T22:44:07.916Z,44.45
2024-01-15T22:49:05.928Z,44.26
2024-01-15T22:54:03.887Z,43.90
2024-01-15T22:59:02.491Z,44.27
2024-01-15T23:03:59.875Z,44.07
2024-01-15T23:09:00.535Z,44.00
2024-01-15T23:13:58.145Z,44.91
2024-01-15T23:18:56.670Z,44.85
2024-01-15T23:23:54.987Z,44.65
2024-01-15T23:28:52.732Z,45.05
2024-01-15T23:33:49.935Z,45.41
2024-01-15T23:38:48.464Z,45.08
2024-01-15T23:43:45.611Z,45.20
2024-01-15T23:48:42.954Z,45.43
2024-01-15T23:53:40.684Z,45.23
2024-01-15T23:58:38.369Z,45.40
